Time;durP1;ratioP1;P1;durP2;ratioP2;P2;SDS_P1;SDS_P2;PMS_P1;PMS_P2;Temp;Humidity;BMP_temperature;BMP_pressure;BME280_temperature;BME280_humidity;BME280_pressure;Samples;Min_cycle;Max_cycle;Signal;HPM_P1;HPM_P2
2021/11/04 00:01:56;;;;;;;51.20;15.38;;;;;;;9.91;100.00;101222.56;1706488;82;21388;-55
2021/11/04 00:05:01;;;;;;;52.62;13.43;;;;;;;9.90;100.00;101231.27;1706527;84;21397;-55
2021/11/04 00:08:07;;;;;;;67.22;13.72;;;;;;;9.86;100.00;101230.35;1709526;82;21363;-55
2021/11/04 00:11:13;;;;;;;59.30;13.08;;;;;;;9.76;100.00;101235.86;1706438;84;21230;-56
2021/11/04 00:14:19;;;;;;;63.75;13.55;;;;;;;9.67;100.00;101239.47;1706180;84;21730;-56
2021/11/04 00:17:26;;;;;;;38.40;12.37;;;;;;;9.61;100.00;101237.34;1694379;83;21219;-57
2021/11/04 00:20:32;;;;;;;41.18;13.25;;;;;;;9.55;100.00;101236.58;1697140;84;21353;-56
2021/11/04 00:23:37;;;;;;;50.20;15.25;;;;;;;9.51;100.00;101246.59;1696998;83;21365;-56
2021/11/04 00:26:43;;;;;;;43.95;14.90;;;;;;;9.49;100.00;101252.70;1696694;83;21858;-56
2021/11/04 00:29:50;;;;;;;49.90;14.80;;;;;;;9.50;100.00;101251.19;1697143;84;21348;-57
2021/11/04 00:33:01;;;;;;;50.12;14.95;;;;;;;9.49;100.00;101260.41;1697172;83;21278;-57
2021/11/04 00:36:06;;;;;;;55.28;14.55;;;;;;;9.51;100.00;101252.93;1697105;84;21203;-57
2021/11/04 00:39:13;;;;;;;46.25;15.83;;;;;;;9.52;100.00;101251.91;1697134;84;21357;-56
2021/11/04 00:42:19;;;;;;;36.88;13.90;;;;;;;9.56;100.00;101260.68;1697073;83;21479;-56
2021/11/04 00:45:26;;;;;;;45.98;14.60;;;;;;;9.54;100.00;101270.40;1697204;84;21199;-56
2021/11/04 00:48:32;;;;;;;49.25;15.98;;;;;;;9.52;100.00;101280.61;1697028;83;21419;-56
2021/11/04 00:51:39;;;;;;;32.53;14.80;;;;;;;9.50;100.00;101270.31;1697006;84;21207;-56
2021/11/04 00:54:44;;;;;;;34.30;14.33;;;;;;;9.51;100.00;101268.45;1697195;84;21321;-56
2021/11/04 00:57:49;;;;;;;51.05;16.10;;;;;;;9.50;100.00;101263.48;1697212;83;21392;-56
2021/11/04 01:00:55;;;;;;;35.30;15.95;;;;;;;9.53;100.00;101271.39;1697313;84;21214;-57
2021/11/04 01:04:02;;;;;;;28.38;15.88;;;;;;;9.56;100.00;101279.28;1696912;83;21408;-57
2021/11/04 01:07:09;;;;;;;35.38;15.03;;;;;;;9.60;100.00;101286.69;1697196;83;21359;-58
2021/11/04 01:10:16;;;;;;;38.90;16.07;;;;;;;9.63;100.00;101282.30;1697136;84;21340;-57
2021/11/04 01:13:24;;;;;;;38.80;15.68;;;;;;;9.65;100.00;101285.26;1696972;83;21227;-57
2021/11/04 01:16:31;;;;;;;35.60;15.88;;;;;;;9.67;100.00;101295.52;1697827;83;21373;-56
2021/11/04 01:19:37;;;;;;;38.92;15.70;;;;;;;9.71;100.00;101306.53;1706488;84;21219;-57
2021/11/04 01:22:44;;;;;;;47.80;17.05;;;;;;;9.75;100.00;101301.11;1706189;82;21210;-56
2021/11/04 01:26:07;;;;;;;29.77;15.60;;;;;;;9.79;100.00;101301.68;1706386;84;21222;-57
2021/11/04 01:29:13;;;;;;;40.12;17.45;;;;;;;9.80;100.00;101297.43;1706281;84;21352;-57
2021/11/04 01:32:20;;;;;;;36.90;17.23;;;;;;;9.84;100.00;101308.45;1706281;83;21269;-56
2021/11/04 01:35:26;;;;;;;31.60;16.97;;;;;;;9.86;100.00;101306.40;1705996;84;21352;-58
2021/11/04 01:38:33;;;;;;;41.50;19.07;;;;;;;9.89;100.00;101306.13;1706474;82;21368;-57
2021/11/04 01:41:40;;;;;;;38.85;19.50;;;;;;;9.92;100.00;101301.73;1706388;82;21731;-56
2021/11/04 01:44:46;;;;;;;34.85;19.35;;;;;;;9.96;100.00;101305.88;1706470;84;21226;-55
2021/11/04 01:48:10;;;;;;;34.53;21.12;;;;;;;9.97;100.00;101304.84;1706725;82;21357;-57
2021/11/04 01:51:15;;;;;;;35.17;22.32;;;;;;;9.93;100.00;101305.30;1706391;84;21333;-55
2021/11/04 01:54:21;;;;;;;32.45;17.70;;;;;;;9.84;100.00;101301.61;1706362;84;21210;-56
2021/11/04 01:57:45;;;;;;;29.07;16.02;;;;;;;9.82;100.00;101302.75;1706250;83;21420;-56
2021/11/04 02:00:50;;;;;;;35.23;17.15;;;;;;;9.76;100.00;101298.75;1706238;84;21349;-56
2021/11/04 02:04:06;;;;;;;29.72;17.82;;;;;;;9.69;100.00;101300.34;1690295;84;21245;-56
2021/11/04 02:07:36;;;;;;;36.23;20.95;;;;;;;9.69;100.00;101300.34;1706503;82;21738;-55
2021/11/04 02:10:50;;;;;;;38.65;20.72;;;;;;;9.67;100.00;101298.25;1705954;84;21353;-57
2021/11/04 02:14:21;;;;;;;37.83;22.13;;;;;;;9.65;100.00;101298.05;1706559;83;21466;-57
2021/11/04 02:17:27;;;;;;;41.90;25.23;;;;;;;9.66;100.00;101306.11;1706277;82;21353;-55
2021/11/04 02:20:40;;;;;;;36.03;20.50;;;;;;;9.64;100.00;101316.32;1680538;85;21431;-55
2021/11/04 02:24:14;;;;;;;32.67;20.60;;;;;;;9.64;100.00;101325.05;1681718;84;21189;-56
2021/11/04 02:27:19;;;;;;;;;;;;;;;9.69;100.00;101324.95;1650307;85;21771;-56
2021/11/04 02:30:25;;;;;;;33.20;19.20;;;;;;;9.75;100.00;101336.66;1680538;85;20306;-56
2021/11/04 02:33:32;;;;;;;37.98;18.82;;;;;;;9.79;100.00;101336.73;1647972;86;21254;-57
2021/11/04 02:36:37;;;;;;;36.25;20.68;;;;;;;9.82;100.00;101340.54;1681416;85;21264;-56
2021/11/04 02:39:42;;;;;;;33.25;19.82;;;;;;;9.85;100.00;101343.47;1680979;85;21339;-55
2021/11/04 02:42:47;;;;;;;31.68;19.20;;;;;;;9.86;100.00;101346.58;1681115;84;21355;-55
2021/11/04 02:45:54;;;;;;;32.98;19.95;;;;;;;9.89;100.00;101349.89;1647832;87;21257;-56
2021/11/04 02:49:00;;;;;;;34.48;19.48;;;;;;;9.91;100.00;101345.64;1681353;84;21328;-56
2021/11/04 02:52:07;;;;;;;36.00;19.70;;;;;;;9.93;100.00;101348.56;1680876;84;21347;-55
2021/11/04 02:55:13;;;;;;;37.80;19.40;;;;;;;9.97;100.00;101355.45;1650463;87;21238;-56
2021/11/04 02:58:21;;;;;;;36.73;19.65;;;;;;;9.99;100.00;101360.28;1667402;85;21231;-55
2021/11/04 03:01:27;;;;;;;33.83;19.15;;;;;;;10.01;100.00;101370.58;1647901;87;21262;-57
2021/11/04 03:04:34;;;;;;;36.90;19.80;;;;;;;10.04;100.00;101373.01;1681561;85;21386;-57
2021/11/04 03:07:40;;;;;;;41.58;20.97;;;;;;;10.06;100.00;101377.84;1647803;85;21278;-58
2021/11/04 03:10:46;;;;;;;39.50;21.05;;;;;;;10.08;100.00;101373.13;1681706;85;21212;-56
2021/11/04 03:13:52;;;;;;;35.75;19.70;;;;;;;10.04;100.00;101381.22;1648030;86;21234;-57
2021/11/04 03:17:02;;;;;;;27.62;16.73;;;;;;;9.99;100.00;101390.89;1681519;84;21907;-57
2021/11/04 03:20:07;;;;;;;32.17;17.98;;;;;;;9.97;100.00;101386.91;1697006;80;21340;-57
2021/11/04 03:23:14;;;;;;;28.70;17.07;;;;;;;10.00;100.00;101399.45;1706490;82;21400;-56
2021/11/04 03:26:25;;;;;;;28.80;17.30;;;;;;;10.01;100.00;101390.22;1706506;84;21426;-56
2021/11/04 03:29:35;;;;;;;34.75;18.00;;;;;;;10.03;100.00;101393.67;1706427;84;21817;-56
2021/11/04 03:32:41;;;;;;;31.15;16.12;;;;;;;10.03;100.00;101397.28;1706252;82;21356;-55
2021/11/04 03:35:49;;;;;;;32.85;18.70;;;;;;;10.04;100.00;101409.07;1706506;84;21398;-56
2021/11/04 03:38:55;;;;;;;32.83;18.45;;;;;;;10.03;100.00;101401.39;1691999;84;21392;-56
2021/11/04 03:42:03;;;;;;;33.42;20.02;;;;;;;10.05;100.00;101402.61;1706495;82;21238;-57
2021/11/04 03:45:09;;;;;;;38.67;19.87;;;;;;;10.05;100.00;101392.50;1706843;83;21365;-57
2021/11/04 03:48:16;;;;;;;40.90;20.40;;;;;;;10.05;100.00;101393.88;1706397;82;21397;-56
2021/11/04 03:51:22;;;;;;;39.98;20.85;;;;;;;10.02;100.00;101398.27;1706484;84;21188;-57
2021/11/04 03:54:28;;;;;;;31.93;17.95;;;;;;;10.02;100.00;101393.33;1706523;84;21348;-57
2021/11/04 03:57:38;;;;;;;43.05;18.02;;;;;;;10.02;100.00;101391.97;1706509;82;21448;-56
2021/11/04 04:00:41;;;;;;;41.50;18.85;;;;;;;10.02;100.00;101398.27;1706591;83;21325;-58
2021/11/04 04:03:49;;;;;;;38.55;18.35;;;;;;;10.04;100.00;101406.33;1706622;82;21229;-58
2021/11/04 04:07:01;;;;;;;46.10;18.90;;;;;;;10.05;100.00;101415.76;1706451;83;21413;-56
2021/11/04 04:10:06;;;;;;;38.95;17.05;;;;;;;10.05;100.00;101414.39;1706667;84;21235;-55
2021/11/04 04:13:11;;;;;;;46.95;17.87;;;;;;;10.05;100.00;101429.97;1706522;82;21230;-56
2021/11/04 04:16:17;;;;;;;38.80;18.07;;;;;;;10.04;100.00;101436.42;1706426;84;21792;-55
2021/11/04 04:19:24;;;;;;;36.90;18.60;;;;;;;10.05;100.00;101444.48;1706662;84;21846;-54
2021/11/04 04:22:30;;;;;;;39.25;18.42;;;;;;;10.03;100.00;101440.19;1716701;81;21223;-55
2021/11/04 04:25:37;;;;;;;41.55;19.87;;;;;;;10.02;100.00;101454.88;1715963;83;21201;-54
2021/11/04 04:28:44;;;;;;;58.30;21.30;;;;;;;10.00;100.00;101455.52;1716078;82;21305;-55
2021/11/04 04:31:50;;;;;;;43.73;19.82;;;;;;;9.98;100.00;101457.53;1716127;82;21360;-55
2021/11/04 04:34:56;;;;;;;45.45;20.30;;;;;;;9.98;100.00;101462.51;1716136;83;21416;-54
2021/11/04 04:38:01;;;;;;;38.80;20.55;;;;;;;10.00;100.00;101466.47;1716197;82;21881;-54
2021/11/04 04:41:08;;;;;;;46.58;21.05;;;;;;;10.00;100.00;101474.18;1716131;83;21348;-54
2021/11/04 04:44:14;;;;;;;38.60;19.15;;;;;;;10.00;100.00;101471.44;1715755;83;21419;-55
2021/11/04 04:47:20;;;;;;;36.48;19.52;;;;;;;10.02;100.00;101480.34;1679800;85;21375;-56
2021/11/04 04:50:26;;;;;;;33.18;19.25;;;;;;;10.04;100.00;101497.98;1715769;83;21362;-54
2021/11/04 04:53:31;;;;;;;40.30;19.40;;;;;;;10.05;100.00;101489.62;1715431;82;21406;-54
2021/11/04 04:56:36;;;;;;;41.50;18.00;;;;;;;10.04;100.00;101486.54;1713109;84;21402;-55
2021/11/04 04:59:41;;;;;;;38.13;16.70;;;;;;;10.02;100.00;101490.45;1699108;83;21872;-55
2021/11/04 05:02:49;;;;;;;39.23;17.27;;;;;;;10.02;100.00;101493.18;1713974;82;21342;-55
2021/11/04 05:05:54;;;;;;;35.70;17.40;;;;;;;9.98;100.00;101493.97;1679849;85;21926;-55
2021/11/04 05:09:00;;;;;;;38.05;18.37;;;;;;;9.99;100.00;101502.52;1678933;84;21797;-55
2021/11/04 05:12:08;;;;;;;32.90;18.35;;;;;;;10.00;100.00;101500.17;1678987;84;21284;-55
2021/11/04 05:15:13;;;;;;;39.50;16.73;;;;;;;10.03;100.00;101492.16;1715550;83;21358;-55
2021/11/04 05:18:19;;;;;;;28.00;16.37;;;;;;;10.03;100.00;101501.24;1700397;83;21417;-55
2021/11/04 05:21:25;;;;;;;33.53;15.50;;;;;;;9.99;100.00;101505.26;1713704;82;21338;-55
2021/11/04 05:24:34;;;;;;;29.90;15.13;;;;;;;9.99;100.00;101494.84;1680627;85;21696;-55
2021/11/04 05:27:47;;;;;;;29.15;15.08;;;;;;;9.98;100.00;101500.81;1679492;84;21362;-55
2021/11/04 05:30:49;;;;;;;29.27;15.20;;;;;;;9.97;100.00;101512.73;1679875;85;21741;-55
2021/11/04 05:33:56;;;;;;;37.35;16.00;;;;;;;9.97;100.00;101522.84;1680387;84;21244;-55
2021/11/04 05:37:03;;;;;;;29.42;15.20;;;;;;;9.99;100.00;101524.41;1680462;84;21252;-55
2021/11/04 05:40:11;;;;;;;33.50;16.23;;;;;;;10.03;100.00;101528.60;1679438;85;21300;-55
2021/11/04 05:43:16;;;;;;;37.25;15.50;;;;;;;10.10;100.00;101532.50;1679864;83;21221;-56
2021/11/04 05:46:21;;;;;;;44.63;15.53;;;;;;;10.14;100.00;101516.17;1625262;87;21572;-56
2021/11/04 05:49:27;;;;;;;26.77;15.40;;;;;;;10.18;100.00;101512.12;1625726;87;21662;-56
2021/11/04 05:52:32;;;;;;;29.30;14.93;;;;;;;10.20;100.00;101533.37;1651324;86;21749;-56
2021/11/04 05:55:36;;;;;;;25.25;14.43;;;;;;;10.21;99.98;101521.40;1644242;87;21216;-56
2021/11/04 05:58:46;;;;;;;26.95;17.45;;;;;;;10.23;99.99;101501.60;1664194;85;21225;-56
2021/11/04 06:01:53;;;;;;;47.55;16.52;;;;;;;10.28;99.90;101505.27;1639592;86;21316;-55
2021/11/04 06:04:58;;;;;;;40.03;17.82;;;;;;;10.31;99.73;101504.47;1667736;85;21558;-55
2021/11/04 06:08:04;;;;;;;50.28;18.48;;;;;;;10.31;99.48;101509.07;1673008;84;21240;-55
2021/11/04 06:11:09;;;;;;;33.50;17.77;;;;;;;10.29;99.26;101501.54;1674329;85;21658;-54
2021/11/04 06:14:25;;;;;;;30.77;15.38;;;;;;;10.28;99.29;101503.40;1669392;84;21209;-54
2021/11/04 06:17:31;;;;;;;25.43;15.25;;;;;;;10.29;99.34;101505.11;1669938;84;21305;-55
2021/11/04 06:20:41;;;;;;;30.60;15.18;;;;;;;10.29;99.28;101492.80;1678556;85;21272;-54
2021/11/04 06:23:49;;;;;;;29.72;14.10;;;;;;;10.30;99.10;101495.91;1673304;82;21820;-55
2021/11/04 06:26:55;;;;;;;23.67;12.75;;;;;;;10.34;99.17;101516.48;1678584;84;21249;-51
2021/11/04 06:30:02;;;;;;;31.80;18.52;;;;;;;10.35;99.00;101501.78;1675802;85;21271;-52
2021/11/04 06:33:07;;;;;;;42.73;17.42;;;;;;;10.38;98.87;101496.05;1678149;84;21722;-52
2021/11/04 06:36:12;;;;;;;41.00;15.75;;;;;;;10.42;98.70;101505.67;1650747;86;21212;-52
2021/11/04 06:39:17;;;;;;;24.25;13.00;;;;;;;10.46;98.56;101516.67;1651962;86;21217;-50
2021/11/04 06:42:23;;;;;;;29.05;14.18;;;;;;;10.45;98.19;101521.80;1685060;83;21828;-52
2021/11/04 06:45:29;;;;;;;25.48;14.87;;;;;;;10.48;98.29;101524.77;1691451;85;21490;-52
2021/11/04 06:48:52;;;;;;;16.35;12.70;;;;;;;10.53;98.24;101519.19;1676218;84;21238;-53
2021/11/04 06:51:58;;;;;;;23.22;12.98;;;;;;;10.61;98.24;101518.97;1677797;85;21789;-52
2021/11/04 06:55:03;;;;;;;20.92;12.53;;;;;;;10.69;98.10;101542.37;1679861;85;21579;-54
2021/11/04 06:58:10;;;;;;;17.37;12.13;;;;;;;10.70;97.66;101553.67;1678345;84;21209;-54
2021/11/04 07:01:23;;;;;;;18.32;12.73;;;;;;;10.74;97.57;101553.71;1677928;85;21785;-53
2021/11/04 07:04:41;;;;;;;18.37;12.75;;;;;;;10.73;97.19;101535.07;1671888;85;21726;-53
2021/11/04 07:07:51;;;;;;;28.77;15.65;;;;;;;10.76;97.08;101522.45;1678950;85;21797;-53
2021/11/04 07:10:56;;;;;;;30.92;16.52;;;;;;;10.78;96.86;101527.77;1676441;85;21209;-53
2021/11/04 07:14:01;;;;;;;22.48;15.03;;;;;;;10.85;96.80;101531.13;1655810;85;21244;-52
2021/11/04 07:17:08;;;;;;;31.25;21.60;;;;;;;10.88;96.70;101525.34;1644007;87;22053;-53
2021/11/04 07:20:15;;;;;;;20.55;14.80;;;;;;;10.97;96.62;101531.81;1677946;85;21341;-55
2021/11/04 07:23:23;;;;;;;18.12;13.43;;;;;;;11.05;96.44;101529.18;1678446;85;21801;-55
2021/11/04 07:26:29;;;;;;;19.15;14.70;;;;;;;11.12;96.25;101527.55;1615942;88;21228;-55
2021/11/04 07:29:40;;;;;;;18.52;12.05;;;;;;;11.19;96.17;101532.79;1620821;88;21275;-55
2021/11/04 07:32:57;;;;;;;17.95;13.30;;;;;;;11.32;96.13;101538.79;1673199;84;21247;-55
2021/11/04 07:36:02;;;;;;;17.65;12.65;;;;;;;11.42;95.71;101545.06;1680201;85;21856;-56
2021/11/04 07:39:08;;;;;;;17.55;13.70;;;;;;;11.46;95.13;101539.64;1663540;85;21367;-55
2021/11/04 07:42:17;;;;;;;16.85;13.22;;;;;;;11.48;94.73;101522.00;1680903;84;21448;-56
2021/11/04 07:45:22;;;;;;;15.88;12.65;;;;;;;11.49;94.72;101511.91;1679495;84;21292;-56
2021/11/04 07:48:30;;;;;;;16.80;13.32;;;;;;;11.59;94.96;101522.32;1675323;84;21291;-55
2021/11/04 07:51:35;;;;;;;16.95;13.10;;;;;;;11.74;94.94;101531.76;1661286;83;21219;-55
2021/11/04 07:54:41;;;;;;;19.50;15.20;;;;;;;11.87;94.69;101533.62;1687223;84;21251;-55
2021/11/04 07:57:48;;;;;;;18.35;13.88;;;;;;;11.92;94.18;101533.48;1688795;82;21248;-56
2021/11/04 08:00:53;;;;;;;16.60;13.10;;;;;;;11.97;94.23;101533.05;1679089;85;21942;-56
2021/11/04 08:04:00;;;;;;;17.32;13.80;;;;;;;12.08;94.25;101533.64;1679103;84;21682;-55
2021/11/04 08:07:07;;;;;;;18.20;14.58;;;;;;;12.23;94.29;101539.45;1679333;85;21288;-56
2021/11/04 08:10:17;;;;;;;15.70;13.00;;;;;;;12.39;94.31;101545.58;1676389;85;21412;-56
2021/11/04 08:13:23;;;;;;;17.07;13.25;;;;;;;12.57;94.17;101547.80;1693280;82;21281;-57
2021/11/04 08:16:29;;;;;;;17.82;13.98;;;;;;;12.71;94.00;101560.95;1678505;85;21539;-55
2021/11/04 08:19:35;;;;;;;17.05;13.25;;;;;;;12.85;93.65;101544.73;1679809;85;21230;-55
2021/11/04 08:22:39;;;;;;;17.48;13.53;;;;;;;12.95;93.13;101547.37;1680897;85;21223;-56
2021/11/04 08:25:51;;;;;;;15.93;13.45;;;;;;;12.92;92.17;101554.03;1664923;83;21239;-56
2021/11/04 08:29:05;;;;;;;15.93;12.60;;;;;;;12.91;91.76;101552.82;1653735;85;21239;-56
2021/11/04 08:32:11;;;;;;;17.30;13.28;;;;;;;12.96;91.58;101540.83;1651106;85;21239;-56
2021/11/04 08:35:18;;;;;;;15.83;12.73;;;;;;;13.05;91.51;101544.88;1649282;87;21226;-55
2021/11/04 08:38:25;;;;;;;21.70;15.75;;;;;;;13.14;90.96;101542.53;1649663;85;21228;-54
2021/11/04 08:41:29;;;;;;;17.12;13.45;;;;;;;13.29;90.86;101540.88;1649232;85;21223;-56
2021/11/04 08:44:34;;;;;;;19.48;13.43;;;;;;;13.50;90.50;101533.56;1662680;85;21773;-55
2021/11/04 08:47:40;;;;;;;17.57;13.08;;;;;;;13.68;89.88;101527.95;1677460;85;21348;-56
2021/11/04 08:50:46;;;;;;;18.60;14.03;;;;;;;13.86;89.51;101525.40;1673765;85;21217;-55
2021/11/04 08:53:52;;;;;;;15.85;12.70;;;;;;;13.92;88.10;101516.99;1678626;84;21238;-54
2021/11/04 08:57:01;;;;;;;22.82;13.83;;;;;;;13.91;87.36;101509.75;1697826;84;21281;-55
2021/11/04 09:00:07;;;;;;;25.45;15.63;;;;;;;13.90;87.29;101506.66;1679244;85;21229;-54
2021/11/04 09:03:16;;;;;;;20.30;14.75;;;;;;;13.95;87.11;101508.39;1680041;85;21209;-55
2021/11/04 09:06:23;;;;;;;20.65;15.28;;;;;;;14.00;86.94;101507.38;1653187;86;21871;-55
2021/11/04 09:09:31;;;;;;;21.23;14.30;;;;;;;13.97;86.32;101508.55;1653749;86;21772;-55
2021/11/04 09:12:44;;;;;;;20.02;16.27;;;;;;;13.93;86.07;101499.44;1666845;85;21757;-55
2021/11/04 09:15:51;;;;;;;19.57;15.45;;;;;;;13.90;85.95;101495.65;1672745;85;21268;-55
2021/11/04 09:18:56;;;;;;;20.17;15.95;;;;;;;13.92;85.82;101499.09;1670938;85;21268;-56
2021/11/04 09:22:02;;;;;;;22.75;16.32;;;;;;;13.93;85.62;101496.17;1677523;84;21249;-56
2021/11/04 09:25:09;;;;;;;21.93;16.50;;;;;;;14.00;85.82;101488.09;1679462;85;21241;-56
2021/11/04 09:28:15;;;;;;;24.95;17.27;;;;;;;14.09;85.50;101484.31;1675568;79;21784;-55
2021/11/04 09:31:24;;;;;;;26.35;18.73;;;;;;;14.18;85.02;101480.52;1709255;82;21212;-57
2021/11/04 09:34:31;;;;;;;22.80;17.92;;;;;;;14.31;84.58;101484.52;1671854;85;21595;-55
2021/11/04 09:37:44;;;;;;;24.30;17.02;;;;;;;14.38;83.72;101489.66;1650837;85;21288;-56
2021/11/04 09:40:53;;;;;;;19.98;15.90;;;;;;;14.43;83.04;101493.30;1660829;85;21196;-54
2021/11/04 09:44:04;;;;;;;29.57;19.10;;;;;;;14.50;82.27;101495.17;1689904;84;21807;-55
2021/11/04 09:47:07;;;;;;;27.15;18.85;;;;;;;14.49;81.35;101504.45;1708340;82;21255;-56
2021/11/04 09:50:22;;;;;;;28.00;19.50;;;;;;;14.45;80.74;101505.85;1674675;84;21257;-57
2021/11/04 09:53:28;;;;;;;27.45;19.37;;;;;;;14.50;80.58;101494.30;1705455;84;22002;-55
2021/11/04 09:56:35;;;;;;;22.20;17.00;;;;;;;14.60;80.59;101486.19;1673834;85;21209;-56
2021/11/04 09:59:40;;;;;;;23.00;16.77;;;;;;;14.64;80.17;101494.97;1703649;84;21729;-55
2021/11/04 10:02:46;;;;;;;24.40;18.02;;;;;;;14.59;80.22;101490.49;1662440;84;21714;-56
2021/11/04 10:05:58;;;;;;;22.77;17.37;;;;;;;14.50;80.18;101488.80;1707928;84;21259;-56
2021/11/04 10:09:11;;;;;;;19.95;15.83;;;;;;;14.45;80.52;101487.95;1671780;85;21645;-56
2021/11/04 10:12:19;;;;;;;27.52;18.73;;;;;;;14.35;80.19;101482.28;1675372;84;21228;-54
2021/11/04 10:15:24;;;;;;;23.25;17.92;;;;;;;14.21;80.28;101474.15;1648406;87;21307;-54
2021/11/04 10:18:30;;;;;;;29.45;19.92;;;;;;;14.14;80.91;101479.15;1634636;87;21813;-54
2021/11/04 10:21:36;;;;;;;28.80;20.52;;;;;;;14.09;81.09;101469.16;1681871;85;21223;-54
2021/11/04 10:24:41;;;;;;;30.75;21.07;;;;;;;14.09;81.51;101458.15;1680820;85;21730;-55
2021/11/04 10:27:48;;;;;;;30.68;22.65;;;;;;;14.09;81.60;101454.02;1649014;85;21721;-55
2021/11/04 10:30:55;;;;;;;33.35;22.80;;;;;;;13.99;81.64;101456.06;1652245;86;22029;-54
2021/11/04 10:33:59;;;;;;;32.17;23.35;;;;;;;13.93;82.15;101451.25;1652468;84;21255;-55
2021/11/04 10:37:27;;;;;;;34.15;23.92;;;;;;;13.90;82.16;101450.23;1676891;85;21271;-55
2021/11/04 10:40:34;;;;;;;35.20;23.07;;;;;;;13.81;81.89;101451.27;1673838;85;21347;-55
2021/11/04 10:43:42;;;;;;;38.88;25.60;;;;;;;13.74;81.86;101452.96;1679360;85;21343;-55
2021/11/04 10:46:57;;;;;;;36.50;24.63;;;;;;;13.72;82.11;101459.14;1679127;85;21419;-54
2021/11/04 10:50:05;;;;;;;43.33;26.23;;;;;;;13.74;82.45;101454.34;1676997;84;21347;-54
2021/11/04 10:53:24;;;;;;;43.38;25.75;;;;;;;13.82;82.77;101462.60;1682448;83;21213;-54
2021/11/04 10:56:30;;;;;;;44.58;26.75;;;;;;;13.92;82.77;101452.30;1676196;85;21415;-54
2021/11/04 10:59:36;;;;;;;45.98;27.40;;;;;;;14.07;82.55;101447.81;1660961;85;21243;-54
2021/11/04 11:02:41;;;;;;;47.43;29.30;;;;;;;14.14;81.77;101451.61;1647258;85;21387;-54
2021/11/04 11:05:48;;;;;;;49.98;30.05;;;;;;;14.14;81.72;101451.11;1677907;85;21204;-55
2021/11/04 11:08:55;;;;;;;50.98;29.75;;;;;;;14.08;81.50;101452.30;1651612;85;21264;-56
2021/11/04 11:12:08;;;;;;;51.85;31.55;;;;;;;13.97;81.53;101456.78;1651264;84;21260;-56
2021/11/04 11:15:12;;;;;;;49.23;28.55;;;;;;;13.81;81.65;101460.89;1678362;85;21345;-56
2021/11/04 11:18:19;;;;;;;47.80;28.02;;;;;;;13.76;82.27;101462.79;1689469;82;21232;-55
2021/11/04 11:21:24;;;;;;;48.68;27.90;;;;;;;13.76;82.58;101468.80;1609377;88;21239;-56
2021/11/04 11:24:39;;;;;;;48.38;27.35;;;;;;;13.70;82.34;101462.06;1646362;87;21342;-57
2021/11/04 11:27:44;;;;;;;54.27;30.48;;;;;;;13.66;82.49;101464.83;1648219;85;21316;-56
2021/11/04 11:31:09;;;;;;;46.90;28.50;;;;;;;13.72;82.63;101460.52;1645103;87;21260;-56
2021/11/04 11:34:24;;;;;;;50.95;31.27;;;;;;;13.81;82.52;101460.89;1681808;83;21213;-56
2021/11/04 11:37:30;;;;;;;47.62;29.20;;;;;;;13.86;82.45;101458.50;1667292;85;21285;-57
2021/11/04 11:40:41;;;;;;;51.88;29.95;;;;;;;13.85;82.09;101456.25;1677462;85;21245;-55
2021/11/04 11:44:11;;;;;;;56.43;32.00;;;;;;;13.87;82.13;101456.08;1683078;83;21225;-56
2021/11/04 11:47:33;;;;;;;54.23;32.10;;;;;;;13.81;82.14;101459.52;1678659;85;21221;-55
2021/11/04 11:50:47;;;;;;;55.55;31.85;;;;;;;13.71;82.41;101471.19;1676605;84;21723;-55
2021/11/04 11:53:59;;;;;;;48.15;29.25;;;;;;;13.51;82.55;101469.25;1677611;83;21284;-55
2021/11/04 11:57:19;;;;;;;52.65;29.98;;;;;;;13.34;82.97;101471.11;1676585;85;21193;-55
2021/11/04 12:00:25;;;;;;;48.02;31.48;;;;;;;13.23;83.40;101471.42;1674952;84;21281;-56
2021/11/04 12:03:45;;;;;;;49.27;29.57;;;;;;;13.11;83.91;101467.23;1689805;83;21650;-56
2021/11/04 12:06:54;;;;;;;63.35;35.78;;;;;;;13.01;84.45;101465.14;1677327;85;21280;-56
2021/11/04 12:09:59;;;;;;;76.12;42.17;;;;;;;12.92;84.88;101469.36;1639571;87;21195;-57
2021/11/04 12:13:06;;;;;;;70.40;38.95;;;;;;;12.87;85.50;101467.11;1607896;89;21308;-57
2021/11/04 12:16:20;;;;;;;67.15;37.80;;;;;;;12.85;86.06;101471.03;1673158;85;21252;-57
2021/11/04 12:19:27;;;;;;;67.37;35.00;;;;;;;12.82;86.53;101469.48;1675264;85;21758;-55
2021/11/04 12:22:42;;;;;;;71.07;35.73;;;;;;;12.83;87.05;101474.45;1669101;85;21236;-55
2021/11/04 12:25:49;;;;;;;70.72;35.45;;;;;;;12.82;87.46;101468.11;1675544;85;21595;-56
2021/11/04 12:28:56;;;;;;;72.72;37.83;;;;;;;12.85;87.71;101462.28;1676869;85;21228;-57
2021/11/04 12:32:02;;;;;;;72.30;38.45;;;;;;;12.87;87.94;101457.50;1674637;85;22196;-57
2021/11/04 12:35:12;;;;;;;61.95;33.78;;;;;;;12.91;88.17;101448.38;1677676;85;21876;-56
2021/11/04 12:38:31;;;;;;;59.08;34.10;;;;;;;12.90;88.19;101449.42;1676207;85;21245;-56
2021/11/04 12:41:48;;;;;;;62.45;35.33;;;;;;;12.89;88.12;101456.80;1652836;85;21864;-57
2021/11/04 12:44:57;;;;;;;56.02;33.80;;;;;;;12.88;88.06;101461.95;1672531;85;21728;-56
2021/11/04 12:48:53;;;;;;;52.10;31.52;;;;;;;12.86;87.84;101457.13;1673047;84;21241;-56
2021/11/04 12:52:04;;;;;;;59.63;35.03;;;;;;;12.81;87.53;101455.91;1660049;84;21229;-56
2021/11/04 12:55:11;;;;;;;61.75;37.20;;;;;;;12.77;87.56;101457.25;1676302;84;21265;-56
2021/11/04 12:58:17;;;;;;;62.13;34.73;;;;;;;12.75;87.75;101463.44;1675647;84;21221;-57
2021/11/04 13:01:23;;;;;;;64.85;39.25;;;;;;;12.74;87.98;101452.95;1664576;85;21217;-56
2021/11/04 13:04:32;;;;;;;62.17;34.83;;;;;;;12.74;88.08;101464.45;1670655;85;21256;-57
2021/11/04 13:07:45;;;;;;;66.17;37.40;;;;;;;12.75;88.15;101463.44;1678202;84;21823;-56
2021/11/04 13:11:04;;;;;;;60.73;35.58;;;;;;;12.73;88.05;101459.45;1673319;85;21741;-56
2021/11/04 13:14:19;;;;;;;57.23;35.25;;;;;;;12.66;88.10;101463.90;1674771;84;21236;-56
2021/11/04 13:17:58;;;;;;;78.07;42.15;;;;;;;12.60;88.22;101463.69;1681780;83;21635;-56
2021/11/04 13:21:05;;;;;;;83.65;44.00;;;;;;;12.53;88.38;101464.84;1689348;84;21833;-56
2021/11/04 13:24:10;;;;;;;88.07;43.08;;;;;;;12.48;88.61;101458.97;1675199;85;21635;-56
2021/11/04 13:27:16;;;;;;;90.60;45.63;;;;;;;12.41;88.28;101459.28;1674971;84;21284;-57
2021/11/04 13:30:23;;;;;;;99.32;48.95;;;;;;;12.34;88.22;101456.81;1664662;81;21201;-56
2021/11/04 13:41:22;;;;;;;123.13;57.75;;;;;;;12.34;88.22;101459.56;1671755;84;21367;-56
2021/11/04 13:44:34;;;;;;;125.22;56.53;;;;;;;12.33;88.37;101470.20;1684458;85;21711;-57
2021/11/04 13:47:42;;;;;;;109.70;52.67;;;;;;;12.32;88.56;101468.46;1683869;83;21369;-57
2021/11/04 13:50:53;;;;;;;112.20;51.65;;;;;;;12.31;88.67;101464.50;1668911;84;21304;-56
2021/11/04 13:54:01;;;;;;;116.03;53.92;;;;;;;12.31;88.85;101470.00;1675987;84;21947;-57
2021/11/04 13:57:15;;;;;;;112.70;54.60;;;;;;;12.30;89.06;101465.55;1662815;85;21299;-57
2021/11/04 14:00:35;;;;;;;125.72;58.42;;;;;;;12.28;89.23;101466.20;1680442;84;21232;-56
2021/11/04 14:03:45;;;;;;;128.12;63.50;;;;;;;12.28;89.44;101476.69;1667315;85;21533;-56
2021/11/04 14:07:00;;;;;;;127.53;63.98;;;;;;;12.28;89.56;101462.08;1679276;84;21224;-57
2021/11/04 14:10:14;;;;;;;128.25;62.33;;;;;;;12.25;89.73;101461.91;1652946;85;21216;-57
2021/11/04 14:13:20;;;;;;;123.62;61.13;;;;;;;12.23;89.85;101462.57;1649959;85;21417;-58
2021/11/04 14:16:40;;;;;;;128.45;62.27;;;;;;;12.21;90.02;101467.35;1654750;84;21226;-58
2021/11/04 14:19:50;;;;;;;122.33;60.78;;;;;;;12.19;90.22;101473.53;1642215;85;21298;-57
2021/11/04 14:23:00;;;;;;;125.20;60.25;;;;;;;12.17;90.43;101476.94;1677561;85;21391;-57